createdAt,value
2023-03-26T00:04:48.718Z,66.56
2023-03-26T00:09:51.632Z,66.55
2023-03-26T00:14:54.509Z,66.57
2023-03-26T00:19:57.357Z,66.36
2023-03-26T00:25:01.671Z,66.45
2023-03-26T00:30:06.802Z,66.54
2023-03-26T00:35:11.267Z,66.14
2023-03-26T00:40:14.377Z,66.54
2023-03-26T00:45:21.510Z,66.17
2023-03-26T00:50:25.262Z,66.28
2023-03-26T00:55:28.337Z,66.48
2023-03-26T01:00:35.579Z,66.30
2023-03-26T01:05:45.143Z,66.30
2023-03-26T01:10:51.133Z,65.95
2023-03-26T01:15:54.325Z,65.79
2023-03-26T01:21:05.426Z,65.79
2023-03-26T01:26:16.154Z,65.64
2023-03-26T01:31:25.422Z,65.83
2023-03-26T01:36:32.671Z,66.13
2023-03-26T01:42:03.126Z,66.29
2023-03-26T01:47:07.593Z,66.55
2023-03-26T01:52:25.380Z,66.65
2023-03-26T01:57:34.308Z,66.95
2023-03-26T02:02:55.239Z,67.20
2023-03-26T02:08:09.876Z,67.39
2023-03-26T02:13:13.792Z,67.45
2023-03-26T02:18:16.740Z,67.48
2023-03-26T02:23:21.603Z,67.75
2023-03-26T02:28:24.638Z,67.90
2023-03-26T02:33:32.336Z,68.28
2023-03-26T02:38:35.817Z,68.64
2023-03-26T02:43:40.064Z,68.63
2023-03-26T02:48:48.108Z,68.69
2023-03-26T02:53:56.905Z,68.70
2023-03-26T02:59:18.417Z,68.79
2023-03-26T03:04:25.837Z,68.97
2023-03-26T03:09:29.268Z,69.25
2023-03-26T03:15:01.062Z,69.00
2023-03-26T03:20:22.290Z,69.37
2023-03-26T03:25:26.258Z,69.55
2023-03-26T03:30:30.566Z,69.47
2023-03-26T03:35:56.247Z,69.08
2023-03-26T03:41:00.373Z,69.23
2023-03-26T03:46:05.636Z,68.95
2023-03-26T03:51:35.368Z,69.22
2023-03-26T03:56:41.514Z,68.84
2023-03-26T04:01:59.437Z,68.96
2023-03-26T04:07:14.902Z,68.92
2023-03-26T04:12:36.469Z,69.06
2023-03-26T04:17:42.987Z,69.10
2023-03-26T04:22:48.560Z,68.93
2023-03-26T04:27:55.863Z,68.24
2023-03-26T04:33:15.573Z,68.01
2023-03-26T04:38:19.878Z,67.54
2023-03-26T04:43:27.405Z,66.82
2023-03-26T04:48:45.438Z,66.48
2023-03-26T04:53:54.629Z,65.92
2023-03-26T04:59:04.231Z,65.65
2023-03-26T05:04:14.980Z,65.56
2023-03-26T05:09:18.286Z,65.63
2023-03-26T05:14:41.513Z,65.59
2023-03-26T05:19:52.304Z,65.41
2023-03-26T05:24:56.523Z,64.87
2023-03-26T05:30:05.105Z,64.31
2023-03-26T05:35:17.489Z,63.46
2023-03-26T05:40:21.685Z,62.91
2023-03-26T05:45:30.825Z,61.78
2023-03-26T05:50:36.965Z,60.92
2023-03-26T05:55:41.032Z,61.16
2023-03-26T06:01:09.654Z,60.93
2023-03-26T06:06:33.274Z,60.89
2023-03-26T06:11:36.699Z,60.45
2023-03-26T06:16:40.758Z,60.01
2023-03-26T06:21:57.367Z,59.86
2023-03-26T06:27:06.648Z,59.05
2023-03-26T06:32:29.751Z,57.95
2023-03-26T06:37:42.680Z,57.57
2023-03-26T06:43:07.907Z,57.07
2023-03-26T06:48:27.519Z,56.33
2023-03-26T06:53:48.916Z,55.84
2023-03-26T06:59:23.927Z,54.97
2023-03-26T07:04:45.140Z,53.98
2023-03-26T07:10:17.180Z,53.23
2023-03-26T07:15:46.196Z,50.48
2023-03-26T07:21:10.462Z,49.87
2023-03-26T07:26:28.312Z,49.95
2023-03-26T07:32:09.596Z,50.71
2023-03-26T07:38:00.190Z,51.19
2023-03-26T07:43:20.261Z,50.93
2023-03-26T07:48:44.959Z,51.24
2023-03-26T07:54:11.561Z,51.35
2023-03-26T07:59:29.312Z,51.20
2023-03-26T08:04:50.687Z,51.95
2023-03-26T08:10:17.383Z,52.54
2023-03-26T08:15:58.009Z,52.83
2023-03-26T08:21:08.236Z,52.12
2023-03-26T08:26:19.962Z,51.42
2023-03-26T08:31:35.642Z,51.22
2023-03-26T08:36:39.290Z,51.07
2023-03-26T08:41:52.384Z,51.14
2023-03-26T08:47:16.439Z,52.25
2023-03-26T08:52:40.901Z,51.28
2023-03-26T08:58:21.225Z,51.35
2023-03-26T09:03:39.749Z,51.20
2023-03-26T09:09:19.116Z,50.97
2023-03-26T09:14:57.761Z,51.39
2023-03-26T09:20:00.837Z,50.08
2023-03-26T09:25:29.731Z,48.29
2023-03-26T09:30:43.279Z,48.16
2023-03-26T09:36:11.836Z,48.17
2023-03-26T09:41:32.879Z,48.12
2023-03-26T09:46:46.670Z,48.53
2023-03-26T09:52:12.667Z,47.96
2023-03-26T09:57:29.490Z,48.67
2023-03-26T10:03:09.329Z,48.63
2023-03-26T10:08:48.222Z,48.81
2023-03-26T10:13:59.872Z,47.75
2023-03-26T10:19:30.477Z,48.60
2023-03-26T10:24:36.699Z,49.07
2023-03-26T10:29:58.339Z,50.13
2023-03-26T10:35:26.655Z,50.52
2023-03-26T10:40:50.154Z,51.51
2023-03-26T10:46:22.744Z,51.02
2023-03-26T10:52:21.154Z,50.59
2023-03-26T10:57:36.572Z,51.08
2023-03-26T11:03:10.120Z,50.33
2023-03-26T11:08:35.913Z,49.73
2023-03-26T11:14:13.778Z,49.83
2023-03-26T11:19:24.570Z,50.25
2023-03-26T11:24:39.297Z,50.45
2023-03-26T11:29:51.646Z,51.80
2023-03-26T11:35:39.464Z,51.33
2023-03-26T11:40:51.205Z,51.29
2023-03-26T11:46:18.324Z,52.14
2023-03-26T11:51:36.947Z,51.64
2023-03-26T11:57:04.710Z,51.36
2023-03-26T12:02:12.298Z,51.67
2023-03-26T12:07:35.928Z,49.45
2023-03-26T12:12:41.842Z,48.85
2023-03-26T12:17:47.428Z,49.45
2023-03-26T12:22:59.687Z,48.73
2023-03-26T12:28:14.074Z,49.02
2023-03-26T12:33:20.440Z,48.22
2023-03-26T12:38:33.411Z,49.05
2023-03-26T12:44:52.689Z,51.15
2023-03-26T12:49:11.913Z,51.86
2023-03-26T12:54:25.578Z,51.83
2023-03-26T12:59:35.037Z,52.15
2023-03-26T13:05:05.092Z,52.03
2023-03-26T13:10:27.526Z,52.22
2023-03-26T13:16:19.216Z,51.72
2023-03-26T13:21:48.159Z,52.02
2023-03-26T13:27:06.532Z,52.08
2023-03-26T13:32:30.036Z,51.40
2023-03-26T13:37:51.556Z,51.26
2023-03-26T13:43:14.449Z,51.50
2023-03-26T13:48:23.176Z,51.58
2023-03-26T13:53:42.184Z,51.76
2023-03-26T13:58:59.835Z,51.56
2023-03-26T14:04:25.908Z,51.94
2023-03-26T14:09:51.548Z,52.65
2023-03-26T14:14:57.651Z,52.98
2023-03-26T14:20:32.991Z,53.08
2023-03-26T14:25:57.353Z,53.45
2023-03-26T14:31:27.544Z,53.64
2023-03-26T14:37:06.195Z,53.84
2023-03-26T14:42:29.717Z,54.18
2023-03-26T14:47:42.279Z,54.76
2023-03-26T14:52:52.003Z,54.88
2023-03-26T14:58:04.300Z,55.06
2023-03-26T15:03:26.416Z,55.27
2023-03-26T15:08:58.870Z,55.97
2023-03-26T15:14:41.061Z,56.45
2023-03-26T15:20:00.578Z,56.85
2023-03-26T15:25:38.969Z,57.23
2023-03-26T15:31:19.016Z,57.61
2023-03-26T15:37:12.231Z,57.62
2023-03-26T15:42:45.876Z,57.61
2023-03-26T15:48:13.706Z,58.03
2023-03-26T15:53:38.761Z,58.96
2023-03-26T15:59:12.162Z,58.98
2023-03-26T16:04:50.272Z,59.01
2023-03-26T16:10:41.041Z,58.86
2023-03-26T16:16:15.091Z,59.29
2023-03-26T16:21:39.897Z,59.08
2023-03-26T16:26:51.624Z,59.45
2023-03-26T16:32:09.481Z,60.84
2023-03-26T16:37:36.936Z,60.28
2023-03-26T16:43:02.990Z,59.11
2023-03-26T16:48:17.952Z,60.20
2023-03-26T16:53:41.907Z,59.71
2023-03-26T16:58:44.716Z,59.78
2023-03-26T17:04:12.939Z,59.70
2023-03-26T17:09:43.068Z,59.84
2023-03-26T17:14:55.861Z,59.79
2023-03-26T17:20:13.866Z,60.01
2023-03-26T17:25:34.231Z,60.44
2023-03-26T17:31:03.692Z,59.97
2023-03-26T17:36:12.791Z,59.63
2023-03-26T17:42:01.691Z,59.84
2023-03-26T17:47:50.284Z,59.09
2023-03-26T17:53:06.170Z,58.59
2023-03-26T17:58:37.783Z,57.89
2023-03-26T18:03:49.663Z,57.60
2023-03-26T18:09:13.716Z,58.09
2023-03-26T18:14:16.914Z,57.39
2023-03-26T18:19:23.251Z,57.55
2023-03-26T18:24:37.867Z,57.73
2023-03-26T18:29:46.148Z,57.67
2023-03-26T18:34:58.669Z,57.90
2023-03-26T18:40:12.419Z,58.19
2023-03-26T18:45:24.473Z,58.44
2023-03-26T18:50:35.032Z,58.01
2023-03-26T18:55:39.856Z,58.38
2023-03-26T19:00:43.092Z,58.42
2023-03-26T19:05:46.508Z,58.32
2023-03-26T19:11:11.060Z,59.18
2023-03-26T19:16:36.186Z,60.48
2023-03-26T19:21:41.608Z,61.06
2023-03-26T19:26:45.414Z,63.42
2023-03-26T19:31:52.604Z,64.84
2023-03-26T19:37:01.156Z,65.87
2023-03-26T19:42:06.689Z,66.30
2023-03-26T19:47:29.037Z,66.54
2023-03-26T19:52:38.716Z,66.55
2023-03-26T19:57:41.560Z,67.42
2023-03-26T20:02:49.023Z,67.27
2023-03-26T20:07:53.117Z,67.13
2023-03-26T20:12:56.016Z,67.51
2023-03-26T20:17:59.169Z,67.72
2023-03-26T20:23:02.495Z,67.61
2023-03-26T20:28:06.089Z,68.79
2023-03-26T20:33:17.142Z,68.62
2023-03-26T20:38:24.067Z,68.85
2023-03-26T20:43:32.463Z,69.54
2023-03-26T20:48:35.616Z,69.13
2023-03-26T20:53:38.412Z,69.78
2023-03-26T20:58:41.768Z,69.75
2023-03-26T21:03:46.102Z,70.35
2023-03-26T21:08:49.278Z,70.22
2023-03-26T21:14:19.419Z,70.44
2023-03-26T21:19:22.622Z,70.87
2023-03-26T21:24:58.374Z,71.12
2023-03-26T21:30:02.903Z,71.53
2023-03-26T21:35:09.166Z,71.15
2023-03-26T21:40:17.145Z,71.27
2023-03-26T21:45:39.414Z,70.97
2023-03-26T21:50:44.158Z,71.16
2023-03-26T21:56:06.852Z,70.77
2023-03-26T22:01:33.625Z,70.56
2023-03-26T22:06:49.219Z,70.35
2023-03-26T22:11:52.158Z,70.48
2023-03-26T22:16:55.220Z,70.21
2023-03-26T22:22:16.458Z,70.05
2023-03-26T22:27:19.416Z,69.82
2023-03-26T22:32:23.328Z,69.80
2023-03-26T22:37:27.488Z,69.76
2023-03-26T22:42:30.371Z,70.05
2023-03-26T22:47:36.335Z,70.00
2023-03-26T22:52:40.856Z,70.36
2023-03-26T22:57:43.782Z,70.52
2023-03-26T23:02:47.275Z,70.63
2023-03-26T23:07:52.067Z,70.70
2023-03-26T23:12:54.938Z,70.63
2023-03-26T23:17:58.940Z,70.69
2023-03-26T23:23:02.333Z,70.37
2023-03-26T23:28:05.240Z,70.38
2023-03-26T23:33:09.222Z,70.65
2023-03-26T23:38:13.188Z,71.09
2023-03-26T23:43:16.085Z,71.58
2023-03-26T23:48:24.884Z,70.38
2023-03-26T23:53:30.693Z,70.65
2023-03-26T23:58:33.643Z,70.87
